sensor_id;sensor_type;location;lat;lon;timestamp;noise_LAeq;noise_LA_min;noise_LA_max;noise_LA01;noise_LA95
61321;Laerm;17737;52.586;13.284;2023-04-03T00:01:21;52.86;51.44;55.57;;
61321;Laerm;17737;52.586;13.284;2023-04-03T00:03:49;52.97;51.41;58.04;;
61321;Laerm;17737;52.586;13.284;2023-04-03T00:06:18;53.19;51.53;68.19;;
61321;Laerm;17737;52.586;13.284;2023-04-03T00:08:47;52.88;51.44;67.24;;
61321;Laerm;17737;52.586;13.284;2023-04-03T00:11:15;52.77;51.59;55.10;;
61321;Laerm;17737;52.586;13.284;2023-04-03T00:13:43;52.78;51.62;55.16;;
61321;Laerm;17737;52.586;13.284;2023-04-03T00:16:13;52.80;51.48;66.88;;
61321;Laerm;17737;52.586;13.284;2023-04-03T00:18:41;52.98;51.57;56.55;;
61321;Laerm;17737;52.586;13.284;2023-04-03T00:21:12;53.09;51.57;56.30;;
61321;Laerm;17737;52.586;13.284;2023-04-03T00:23:40;52.98;51.41;55.86;;
61321;Laerm;17737;52.586;13.284;2023-04-03T00:26:08;52.78;51.57;55.64;;
61321;Laerm;17737;52.586;13.284;2023-04-03T00:28:36;52.75;51.46;54.81;;
61321;Laerm;17737;52.586;13.284;2023-04-03T00:31:04;52.74;51.33;55.80;;
61321;Laerm;17737;52.586;13.284;2023-04-03T00:33:33;52.75;51.56;56.38;;
61321;Laerm;17737;52.586;13.284;2023-04-03T00:36:06;52.75;51.54;55.10;;
61321;Laerm;17737;52.586;13.284;2023-04-03T00:38:36;52.88;51.40;55.99;;
61321;Laerm;17737;52.586;13.284;2023-04-03T00:41:04;52.77;51.50;69.01;;
61321;Laerm;17737;52.586;13.284;2023-04-03T00:43:33;52.82;51.42;68.23;;
61321;Laerm;17737;52.586;13.284;2023-04-03T00:46:01;52.90;51.22;56.88;;
61321;Laerm;17737;52.586;13.284;2023-04-03T00:48:35;53.53;51.39;63.22;;
61321;Laerm;17737;52.586;13.284;2023-04-03T00:51:06;53.04;51.34;56.88;;
61321;Laerm;17737;52.586;13.284;2023-04-03T00:53:40;52.73;51.51;55.49;;
61321;Laerm;17737;52.586;13.284;2023-04-03T00:56:13;52.74;51.37;54.82;;
61321;Laerm;17737;52.586;13.284;2023-04-03T00:58:48;52.74;51.25;55.74;;
61321;Laerm;17737;52.586;13.284;2023-04-03T01:01:23;52.73;51.47;56.29;;
61321;Laerm;17737;52.586;13.284;2023-04-03T01:03:53;52.73;51.56;55.39;;
61321;Laerm;17737;52.586;13.284;2023-04-03T01:06:25;52.73;51.35;55.36;;
61321;Laerm;17737;52.586;13.284;2023-04-03T01:08:55;52.73;51.31;55.20;;
61321;Laerm;17737;52.586;13.284;2023-04-03T01:11:23;52.78;51.38;68.43;;
61321;Laerm;17737;52.586;13.284;2023-04-03T01:13:52;52.99;51.29;56.13;;
61321;Laerm;17737;52.586;13.284;2023-04-03T01:16:20;53.63;51.38;69.46;;
61321;Laerm;17737;52.586;13.284;2023-04-03T01:18:48;52.76;51.64;54.78;;
61321;Laerm;17737;52.586;13.284;2023-04-03T01:21:56;52.79;51.23;56.23;;
61321;Laerm;17737;52.586;13.284;2023-04-03T01:24:36;52.97;51.54;56.53;;
61321;Laerm;17737;52.586;13.284;2023-04-03T01:27:08;52.83;51.43;55.58;;
61321;Laerm;17737;52.586;13.284;2023-04-03T01:29:37;52.91;51.29;56.07;;
61321;Laerm;17737;52.586;13.284;2023-04-03T01:32:07;52.87;51.56;67.99;;
61321;Laerm;17737;52.586;13.284;2023-04-03T01:34:35;52.85;51.53;54.11;;
61321;Laerm;17737;52.586;13.284;2023-04-03T01:37:03;53.08;51.41;56.07;;
61321;Laerm;17737;52.586;13.284;2023-04-03T01:39:31;52.85;51.57;55.33;;
61321;Laerm;17737;52.586;13.284;2023-04-03T01:41:59;53.66;51.35;61.22;;
61321;Laerm;17737;52.586;13.284;2023-04-03T01:44:28;52.87;51.48;55.75;;
61321;Laerm;17737;52.586;13.284;2023-04-03T01:46:56;53.02;51.72;68.53;;
61321;Laerm;17737;52.586;13.284;2023-04-03T01:49:26;53.13;51.74;57.21;;
61321;Laerm;17737;52.586;13.284;2023-04-03T01:51:53;52.88;51.70;54.12;;
61321;Laerm;17737;52.586;13.284;2023-04-03T01:54:21;52.87;51.55;55.65;;
61321;Laerm;17737;52.586;13.284;2023-04-03T01:56:50;52.89;51.63;55.40;;
61321;Laerm;17737;52.586;13.284;2023-04-03T01:59:18;52.93;51.71;67.18;;
61321;Laerm;17737;52.586;13.284;2023-04-03T02:01:46;52.90;51.70;55.12;;
61321;Laerm;17737;52.586;13.284;2023-04-03T02:04:14;52.91;51.44;56.47;;
61321;Laerm;17737;52.586;13.284;2023-04-03T02:06:44;52.91;51.38;55.68;;
61321;Laerm;17737;52.586;13.284;2023-04-03T02:09:12;52.92;51.62;64.87;;
61321;Laerm;17737;52.586;13.284;2023-04-03T02:11:40;52.91;51.44;55.54;;
61321;Laerm;17737;52.586;13.284;2023-04-03T02:14:08;52.92;51.75;55.87;;
61321;Laerm;17737;52.586;13.284;2023-04-03T02:16:36;53.05;51.48;56.14;;
61321;Laerm;17737;52.586;13.284;2023-04-03T02:19:04;52.92;51.52;55.49;;
61321;Laerm;17737;52.586;13.284;2023-04-03T02:21:32;52.93;51.70;56.58;;
61321;Laerm;17737;52.586;13.284;2023-04-03T02:24:02;53.18;51.60;56.23;;
61321;Laerm;17737;52.586;13.284;2023-04-03T02:26:30;53.28;51.74;57.34;;
61321;Laerm;17737;52.586;13.284;2023-04-03T02:28:58;52.96;51.65;55.28;;
61321;Laerm;17737;52.586;13.284;2023-04-03T02:31:26;53.09;51.79;56.56;;
61321;Laerm;17737;52.586;13.284;2023-04-03T02:33:54;53.34;51.64;58.30;;
61321;Laerm;17737;52.586;13.284;2023-04-03T02:36:22;53.01;51.72;56.79;;
61321;Laerm;17737;52.586;13.284;2023-04-03T02:38:50;53.68;51.62;60.17;;
61321;Laerm;17737;52.586;13.284;2023-04-03T02:41:19;53.32;51.70;56.75;;
61321;Laerm;17737;52.586;13.284;2023-04-03T02:43:47;53.22;51.72;56.64;;
61321;Laerm;17737;52.586;13.284;2023-04-03T02:46:15;53.01;51.85;54.83;;
61321;Laerm;17737;52.586;13.284;2023-04-03T02:48:43;52.99;51.74;55.87;;
61321;Laerm;17737;52.586;13.284;2023-04-03T02:51:11;53.13;51.74;56.37;;
61321;Laerm;17737;52.586;13.284;2023-04-03T02:53:39;53.22;51.69;56.37;;
61321;Laerm;17737;52.586;13.284;2023-04-03T02:56:07;53.37;51.83;56.68;;
61321;Laerm;17737;52.586;13.284;2023-04-03T02:58:36;53.54;51.69;57.52;;
61321;Laerm;17737;52.586;13.284;2023-04-03T03:01:04;53.60;51.68;64.88;;
61321;Laerm;17737;52.586;13.284;2023-04-03T03:03:32;53.24;51.64;60.89;;
61321;Laerm;17737;52.586;13.284;2023-04-03T03:06:02;53.25;51.62;59.03;;
61321;Laerm;17737;52.586;13.284;2023-04-03T03:08:30;53.84;51.64;58.77;;
61321;Laerm;17737;52.586;13.284;2023-04-03T03:10:58;53.20;51.61;56.10;;
61321;Laerm;17737;52.586;13.284;2023-04-03T03:13:26;53.87;51.85;60.16;;
61321;Laerm;17737;52.586;13.284;2023-04-03T03:15:56;53.27;51.84;56.52;;
61321;Laerm;17737;52.586;13.284;2023-04-03T03:18:24;54.28;51.67;60.65;;
61321;Laerm;17737;52.586;13.284;2023-04-03T03:20:54;53.96;51.94;67.75;;
61321;Laerm;17737;52.586;13.284;2023-04-03T03:23:24;54.07;51.99;68.49;;
61321;Laerm;17737;52.586;13.284;2023-04-03T03:25:55;53.52;51.91;56.64;;
61321;Laerm;17737;52.586;13.284;2023-04-03T03:28:23;54.19;51.80;59.51;;
61321;Laerm;17737;52.586;13.284;2023-04-03T03:30:51;53.85;51.82;68.66;;
61321;Laerm;17737;52.586;13.284;2023-04-03T03:33:21;54.13;51.79;58.39;;
61321;Laerm;17737;52.586;13.284;2023-04-03T03:35:49;54.19;51.85;58.32;;
61321;Laerm;17737;52.586;13.284;2023-04-03T03:38:17;53.22;51.62;56.77;;
61321;Laerm;17737;52.586;13.284;2023-04-03T03:40:46;53.75;51.44;57.73;;
61321;Laerm;17737;52.586;13.284;2023-04-03T03:43:14;54.69;51.89;60.75;;
61321;Laerm;17737;52.586;13.284;2023-04-03T03:45:43;54.31;51.85;62.79;;
61321;Laerm;17737;52.586;13.284;2023-04-03T03:48:12;54.18;51.75;68.03;;
61321;Laerm;17737;52.586;13.284;2023-04-03T03:50:41;53.58;51.85;57.92;;
61321;Laerm;17737;52.586;13.284;2023-04-03T03:53:09;54.24;51.96;67.78;;
61321;Laerm;17737;52.586;13.284;2023-04-03T03:55:37;53.85;51.89;59.19;;
61321;Laerm;17737;52.586;13.284;2023-04-03T03:58:05;53.96;51.81;59.31;;
61321;Laerm;17737;52.586;13.284;2023-04-03T04:00:33;54.27;52.04;61.27;;
61321;Laerm;17737;52.586;13.284;2023-04-03T04:03:01;53.30;51.87;56.51;;
61321;Laerm;17737;52.586;13.284;2023-04-03T04:05:29;55.00;51.95;63.82;;
61321;Laerm;17737;52.586;13.284;2023-04-03T04:07:59;54.59;51.77;60.74;;
61321;Laerm;17737;52.586;13.284;2023-04-03T04:10:27;54.90;51.93;66.82;;
61321;Laerm;17737;52.586;13.284;2023-04-03T04:12:55;54.13;51.81;59.65;;
61321;Laerm;17737;52.586;13.284;2023-04-03T04:15:24;54.89;52.00;67.55;;
61321;Laerm;17737;52.586;13.284;2023-04-03T04:17:53;55.24;51.95;66.83;;
61321;Laerm;17737;52.586;13.284;2023-04-03T04:20:22;53.63;51.77;59.17;;
61321;Laerm;17737;52.586;13.284;2023-04-03T04:22:50;54.77;51.96;66.62;;
61321;Laerm;17737;52.586;13.284;2023-04-03T04:25:19;54.33;51.95;60.99;;
61321;Laerm;17737;52.586;13.284;2023-04-03T04:27:47;55.28;51.77;67.41;;
61321;Laerm;17737;52.586;13.284;2023-04-03T04:30:16;53.96;51.83;58.91;;
61321;Laerm;17737;52.586;13.284;2023-04-03T04:32:44;54.89;51.99;69.80;;
61321;Laerm;17737;52.586;13.284;2023-04-03T04:35:12;54.30;51.82;59.59;;
61321;Laerm;17737;52.586;13.284;2023-04-03T04:37:42;55.07;51.93;63.52;;
61321;Laerm;17737;52.586;13.284;2023-04-03T04:40:11;54.96;52.02;61.27;;
61321;Laerm;17737;52.586;13.284;2023-04-03T04:42:40;54.99;51.79;68.17;;
61321;Laerm;17737;52.586;13.284;2023-04-03T04:45:09;54.44;51.93;67.22;;
61321;Laerm;17737;52.586;13.284;2023-04-03T04:47:37;55.07;52.03;67.69;;
61321;Laerm;17737;52.586;13.284;2023-04-03T04:50:06;55.01;51.82;62.83;;
61321;Laerm;17737;52.586;13.284;2023-04-03T04:52:34;54.18;51.95;66.83;;
61321;Laerm;17737;52.586;13.284;2023-04-03T04:55:03;54.19;51.81;60.91;;
61321;Laerm;17737;52.586;13.284;2023-04-03T04:57:31;54.19;51.84;68.94;;
61321;Laerm;17737;52.586;13.284;2023-04-03T05:00:00;55.10;51.79;63.07;;
61321;Laerm;17737;52.586;13.284;2023-04-03T05:02:28;54.67;51.77;65.54;;
61321;Laerm;17737;52.586;13.284;2023-04-03T05:04:56;54.43;51.54;60.99;;
61321;Laerm;17737;52.586;13.284;2023-04-03T05:07:24;54.23;51.62;60.02;;
61321;Laerm;17737;52.586;13.284;2023-04-03T05:09:52;54.07;51.82;59.38;;
61321;Laerm;17737;52.586;13.284;2023-04-03T05:12:20;58.10;51.99;71.51;;
61321;Laerm;17737;52.586;13.284;2023-04-03T05:14:48;54.85;51.58;61.28;;
61321;Laerm;17737;52.586;13.284;2023-04-03T05:17:18;54.36;51.75;59.36;;
61321;Laerm;17737;52.586;13.284;2023-04-03T05:19:46;55.91;51.71;68.57;;
61321;Laerm;17737;52.586;13.284;2023-04-03T05:22:14;54.26;51.49;59.15;;
61321;Laerm;17737;52.586;13.284;2023-04-03T05:24:42;55.17;51.79;60.67;;
61321;Laerm;17737;52.586;13.284;2023-04-03T05:27:10;54.01;51.73;59.25;;
61321;Laerm;17737;52.586;13.284;2023-04-03T05:29:38;55.40;51.99;61.65;;
61321;Laerm;17737;52.586;13.284;2023-04-03T05:32:06;55.16;51.90;59.64;;
61321;Laerm;17737;52.586;13.284;2023-04-03T05:34:35;55.87;52.04;62.96;;
61321;Laerm;17737;52.586;13.284;2023-04-03T05:37:03;54.39;51.69;63.44;;
61321;Laerm;17737;52.586;13.284;2023-04-03T05:39:32;56.03;51.87;66.72;;
61321;Laerm;17737;52.586;13.284;2023-04-03T05:42:00;59.72;53.53;72.35;;
61321;Laerm;17737;52.586;13.284;2023-04-03T05:44:28;60.85;52.98;72.31;;
61321;Laerm;17737;52.586;13.284;2023-04-03T05:46:56;55.92;52.13;65.76;;
61321;Laerm;17737;52.586;13.284;2023-04-03T05:49:24;54.72;52.25;68.78;;
61321;Laerm;17737;52.586;13.284;2023-04-03T05:51:53;54.60;51.62;59.97;;
61321;Laerm;17737;52.586;13.284;2023-04-03T05:54:24;55.51;52.00;66.24;;
61321;Laerm;17737;52.586;13.284;2023-04-03T05:56:53;55.87;51.92;63.82;;
61321;Laerm;17737;52.586;13.284;2023-04-03T05:59:22;54.80;51.79;68.53;;
61321;Laerm;17737;52.586;13.284;2023-04-03T06:01:50;55.21;51.36;68.20;;
61321;Laerm;17737;52.586;13.284;2023-04-03T06:04:17;54.07;51.63;60.10;;
61321;Laerm;17737;52.586;13.284;2023-04-03T06:06:49;54.24;51.73;67.39;;
61321;Laerm;17737;52.586;13.284;2023-04-03T06:09:20;54.28;51.60;59.81;;
61321;Laerm;17737;52.586;13.284;2023-04-03T06:11:49;54.51;51.74;61.43;;
61321;Laerm;17737;52.586;13.284;2023-04-03T06:14:17;55.41;51.74;68.46;;
61321;Laerm;17737;52.586;13.284;2023-04-03T06:16:46;54.73;51.59;59.45;;
61321;Laerm;17737;52.586;13.284;2023-04-03T06:19:14;54.53;51.82;63.23;;
61321;Laerm;17737;52.586;13.284;2023-04-03T06:21:42;53.99;51.61;58.62;;
61321;Laerm;17737;52.586;13.284;2023-04-03T06:24:14;55.14;51.62;62.99;;
61321;Laerm;17737;52.586;13.284;2023-04-03T06:26:44;55.15;51.41;61.11;;
61321;Laerm;17737;52.586;13.284;2023-04-03T06:29:12;54.86;51.62;65.88;;
61321;Laerm;17737;52.586;13.284;2023-04-03T06:31:40;54.55;51.73;58.88;;
61321;Laerm;17737;52.586;13.284;2023-04-03T06:34:08;54.18;51.51;58.54;;
61321;Laerm;17737;52.586;13.284;2023-04-03T06:36:36;54.78;51.79;60.61;;
61321;Laerm;17737;52.586;13.284;2023-04-03T06:39:05;54.34;51.77;61.94;;
61321;Laerm;17737;52.586;13.284;2023-04-03T06:41:33;55.80;51.74;65.46;;
61321;Laerm;17737;52.586;13.284;2023-04-03T06:44:04;55.37;51.88;60.33;;
61321;Laerm;17737;52.586;13.284;2023-04-03T06:46:32;54.63;51.83;63.48;;
61321;Laerm;17737;52.586;13.284;2023-04-03T06:49:00;54.80;52.00;59.21;;
61321;Laerm;17737;52.586;13.284;2023-04-03T06:51:30;54.29;51.69;59.82;;
61321;Laerm;17737;52.586;13.284;2023-04-03T06:53:59;54.35;51.68;65.54;;
61321;Laerm;17737;52.586;13.284;2023-04-03T06:56:28;54.39;51.77;64.94;;
61321;Laerm;17737;52.586;13.284;2023-04-03T06:58:57;54.98;51.69;66.95;;
61321;Laerm;17737;52.586;13.284;2023-04-03T07:01:28;54.22;51.53;66.69;;
61321;Laerm;17737;52.586;13.284;2023-04-03T07:03:57;55.60;51.84;63.98;;
61321;Laerm;17737;52.586;13.284;2023-04-03T07:06:25;56.71;52.07;68.89;;
61321;Laerm;17737;52.586;13.284;2023-04-03T07:08:55;55.58;51.93;70.03;;
61321;Laerm;17737;52.586;13.284;2023-04-03T07:11:24;58.33;53.02;70.24;;
61321;Laerm;17737;52.586;13.284;2023-04-03T07:13:54;57.79;52.34;74.28;;
61321;Laerm;17737;52.586;13.284;2023-04-03T07:16:23;54.74;51.45;61.47;;
61321;Laerm;17737;52.586;13.284;2023-04-03T07:18:52;54.05;51.50;63.41;;
61321;Laerm;17737;52.586;13.284;2023-04-03T07:21:20;54.14;51.78;59.24;;
61321;Laerm;17737;52.586;13.284;2023-04-03T07:23:48;54.45;51.78;59.47;;
61321;Laerm;17737;52.586;13.284;2023-04-03T07:26:16;54.19;51.66;62.77;;
61321;Laerm;17737;52.586;13.284;2023-04-03T07:28:44;54.28;51.68;60.15;;
61321;Laerm;17737;52.586;13.284;2023-04-03T07:31:16;54.82;51.71;60.45;;
61321;Laerm;17737;52.586;13.284;2023-04-03T07:33:45;53.91;51.46;59.77;;
61321;Laerm;17737;52.586;13.284;2023-04-03T07:36:19;53.87;51.55;64.73;;
61321;Laerm;17737;52.586;13.284;2023-04-03T07:38:47;54.58;51.49;60.35;;
61321;Laerm;17737;52.586;13.284;2023-04-03T07:41:18;53.77;51.38;57.76;;
61321;Laerm;17737;52.586;13.284;2023-04-03T07:43:49;53.37;51.51;58.30;;
61321;Laerm;17737;52.586;13.284;2023-04-03T07:46:17;53.59;51.64;59.23;;
61321;Laerm;17737;52.586;13.284;2023-04-03T07:48:45;54.19;51.69;60.38;;
61321;Laerm;17737;52.586;13.284;2023-04-03T07:51:15;54.34;51.29;63.21;;
61321;Laerm;17737;52.586;13.284;2023-04-03T07:53:43;55.02;51.57;66.69;;
61321;Laerm;17737;52.586;13.284;2023-04-03T07:56:11;54.26;51.67;63.37;;
61321;Laerm;17737;52.586;13.284;2023-04-03T07:58:39;54.24;51.74;61.26;;
61321;Laerm;17737;52.586;13.284;2023-04-03T08:01:07;55.28;51.82;65.39;;
61321;Laerm;17737;52.586;13.284;2023-04-03T08:03:35;54.92;51.17;62.66;;
61321;Laerm;17737;52.586;13.284;2023-04-03T08:06:07;54.19;51.79;62.00;;
61321;Laerm;17737;52.586;13.284;2023-04-03T08:08:43;54.29;51.87;58.43;;
61321;Laerm;17737;52.586;13.284;2023-04-03T08:11:11;54.05;51.90;59.38;;
61321;Laerm;17737;52.586;13.284;2023-04-03T08:13:39;54.49;51.74;60.42;;
61321;Laerm;17737;52.586;13.284;2023-04-03T08:16:11;54.15;51.71;65.76;;
61321;Laerm;17737;52.586;13.284;2023-04-03T08:18:39;53.36;51.68;57.70;;
61321;Laerm;17737;52.586;13.284;2023-04-03T08:21:12;54.77;51.66;62.00;;
61321;Laerm;17737;52.586;13.284;2023-04-03T08:23:40;56.80;51.97;66.15;;
61321;Laerm;17737;52.586;13.284;2023-04-03T08:26:14;54.25;51.73;64.73;;
61321;Laerm;17737;52.586;13.284;2023-04-03T08:28:43;54.22;51.77;59.62;;
61321;Laerm;17737;52.586;13.284;2023-04-03T08:31:14;55.01;51.68;63.30;;
61321;Laerm;17737;52.586;13.284;2023-04-03T08:33:44;53.31;51.38;57.49;;
61321;Laerm;17737;52.586;13.284;2023-04-03T08:36:19;53.70;51.54;58.74;;
61321;Laerm;17737;52.586;13.284;2023-04-03T08:38:48;53.84;51.51;60.20;;
61321;Laerm;17737;52.586;13.284;2023-04-03T08:41:29;54.41;51.42;64.28;;
61321;Laerm;17737;52.586;13.284;2023-04-03T08:44:13;54.14;51.42;59.03;;
61321;Laerm;17737;52.586;13.284;2023-04-03T08:46:58;53.51;51.39;58.90;;
61321;Laerm;17737;52.586;13.284;2023-04-03T08:49:33;54.46;51.43;59.32;;
61321;Laerm;17737;52.586;13.284;2023-04-03T08:52:10;54.06;51.52;59.54;;
61321;Laerm;17737;52.586;13.284;2023-04-03T08:54:51;55.50;51.40;75.58;;
61321;Laerm;17737;52.586;13.284;2023-04-03T08:57:29;54.37;51.21;64.16;;
61321;Laerm;17737;52.586;13.284;2023-04-03T09:00:05;54.03;51.28;67.29;;
61321;Laerm;17737;52.586;13.284;2023-04-03T09:02:42;53.76;51.35;58.45;;
61321;Laerm;17737;52.586;13.284;2023-04-03T09:05:16;53.63;51.45;60.39;;
61321;Laerm;17737;52.586;13.284;2023-04-03T09:07:52;54.20;51.34;62.55;;
61321;Laerm;17737;52.586;13.284;2023-04-03T09:10:29;53.95;51.25;59.68;;
61321;Laerm;17737;52.586;13.284;2023-04-03T09:13:07;54.39;51.51;62.24;;
61321;Laerm;17737;52.586;13.284;2023-04-03T09:15:39;55.19;51.54;66.92;;
61321;Laerm;17737;52.586;13.284;2023-04-03T09:18:17;54.19;51.25;62.09;;
61321;Laerm;17737;52.586;13.284;2023-04-03T09:21:00;55.18;51.52;65.75;;
61321;Laerm;17737;52.586;13.284;2023-04-03T09:23:38;53.69;51.41;61.32;;
61321;Laerm;17737;52.586;13.284;2023-04-03T09:26:14;54.90;51.54;64.54;;
61321;Laerm;17737;52.586;13.284;2023-04-03T09:28:45;54.65;51.27;59.05;;
61321;Laerm;17737;52.586;13.284;2023-04-03T09:31:21;54.96;51.39;64.77;;
61321;Laerm;17737;52.586;13.284;2023-04-03T09:33:55;54.05;51.28;65.23;;
61321;Laerm;17737;52.586;13.284;2023-04-03T09:36:42;54.84;51.43;71.91;;
61321;Laerm;17737;52.586;13.284;2023-04-03T09:39:13;54.78;51.46;66.43;;
61321;Laerm;17737;52.586;13.284;2023-04-03T09:41:55;53.84;51.11;58.92;;
61321;Laerm;17737;52.586;13.284;2023-04-03T09:44:28;53.85;51.17;61.91;;
61321;Laerm;17737;52.586;13.284;2023-04-03T09:46:57;54.59;51.29;61.89;;
61321;Laerm;17737;52.586;13.284;2023-04-03T09:49:26;53.60;51.30;63.42;;
61321;Laerm;17737;52.586;13.284;2023-04-03T09:51:54;53.70;51.27;60.04;;
61321;Laerm;17737;52.586;13.284;2023-04-03T09:54:33;54.73;51.30;64.61;;
61321;Laerm;17737;52.586;13.284;2023-04-03T09:57:10;54.11;51.24;60.77;;
61321;Laerm;17737;52.586;13.284;2023-04-03T09:59:46;53.75;51.16;59.81;;
61321;Laerm;17737;52.586;13.284;2023-04-03T10:02:35;53.46;51.18;60.68;;
61321;Laerm;17737;52.586;13.284;2023-04-03T10:05:26;53.47;51.22;58.85;;
61321;Laerm;17737;52.586;13.284;2023-04-03T10:08:10;53.86;51.25;58.39;;
61321;Laerm;17737;52.586;13.284;2023-04-03T10:10:39;52.88;51.00;57.66;;
61321;Laerm;17737;52.586;13.284;2023-04-03T10:13:12;54.54;51.08;62.37;;
61321;Laerm;17737;52.586;13.284;2023-04-03T10:15:55;53.24;51.03;60.78;;
61321;Laerm;17737;52.586;13.284;2023-04-03T10:18:36;54.67;51.35;61.90;;
61321;Laerm;17737;52.586;13.284;2023-04-03T10:21:15;53.80;51.19;60.37;;
61321;Laerm;17737;52.586;13.284;2023-04-03T10:24:03;54.15;51.26;58.83;;
61321;Laerm;17737;52.586;13.284;2023-04-03T10:26:44;53.59;50.73;59.01;;
61321;Laerm;17737;52.586;13.284;2023-04-03T10:29:38;54.11;51.25;65.89;;
61321;Laerm;17737;52.586;13.284;2023-04-03T10:32:33;54.05;51.23;60.28;;
61321;Laerm;17737;52.586;13.284;2023-04-03T10:35:20;53.83;51.02;58.98;;
61321;Laerm;17737;52.586;13.284;2023-04-03T10:38:05;53.28;51.22;58.24;;
61321;Laerm;17737;52.586;13.284;2023-04-03T10:40:47;53.96;51.08;59.46;;
61321;Laerm;17737;52.586;13.284;2023-04-03T10:43:30;54.03;50.98;58.98;;
61321;Laerm;17737;52.586;13.284;2023-04-03T10:46:10;53.28;50.82;59.38;;
61321;Laerm;17737;52.586;13.284;2023-04-03T10:49:01;54.36;50.95;59.72;;
61321;Laerm;17737;52.586;13.284;2023-04-03T10:51:41;53.73;51.25;58.67;;
61321;Laerm;17737;52.586;13.284;2023-04-03T10:54:13;54.04;51.31;60.92;;
61321;Laerm;17737;52.586;13.284;2023-04-03T10:56:50;53.99;51.23;60.60;;
61321;Laerm;17737;52.586;13.284;2023-04-03T10:59:39;53.95;51.16;60.67;;
61321;Laerm;17737;52.586;13.284;2023-04-03T11:02:21;53.62;50.99;58.37;;
61321;Laerm;17737;52.586;13.284;2023-04-03T11:04:56;54.29;51.20;63.25;;
61321;Laerm;17737;52.586;13.284;2023-04-03T11:07:32;54.38;50.98;60.43;;
61321;Laerm;17737;52.586;13.284;2023-04-03T11:10:13;53.36;50.64;58.72;;
61321;Laerm;17737;52.586;13.284;2023-04-03T11:12:48;53.75;50.97;59.82;;
61321;Laerm;17737;52.586;13.284;2023-04-03T11:15:20;53.44;51.13;58.61;;
61321;Laerm;17737;52.586;13.284;2023-04-03T11:17:57;54.31;51.10;61.00;;
61321;Laerm;17737;52.586;13.284;2023-04-03T11:20:30;53.77;51.08;60.00;;
61321;Laerm;17737;52.586;13.284;2023-04-03T11:23:03;53.71;51.18;59.63;;
61321;Laerm;17737;52.586;13.284;2023-04-03T11:25:36;53.95;51.07;59.55;;
61321;Laerm;17737;52.586;13.284;2023-04-03T11:28:12;54.70;51.32;59.91;;
61321;Laerm;17737;52.586;13.284;2023-04-03T11:30:49;53.79;51.11;63.86;;
61321;Laerm;17737;52.586;13.284;2023-04-03T11:33:40;54.87;51.16;62.44;;
61321;Laerm;17737;52.586;13.284;2023-04-03T11:36:22;54.01;51.31;58.86;;
61321;Laerm;17737;52.586;13.284;2023-04-03T11:39:14;53.85;51.32;59.24;;
61321;Laerm;17737;52.586;13.284;2023-04-03T11:41:44;53.70;51.02;61.20;;
61321;Laerm;17737;52.586;13.284;2023-04-03T11:44:33;53.50;51.15;57.69;;
61321;Laerm;17737;52.586;13.284;2023-04-03T11:47:04;54.68;51.20;67.81;;
61321;Laerm;17737;52.586;13.284;2023-04-03T11:50:00;53.75;51.04;61.71;;
61321;Laerm;17737;52.586;13.284;2023-04-03T11:53:00;53.53;51.19;59.78;;
61321;Laerm;17737;52.586;13.284;2023-04-03T11:56:03;54.70;51.48;59.62;;
61321;Laerm;17737;52.586;13.284;2023-04-03T11:58:33;54.44;51.33;59.66;;
61321;Laerm;17737;52.586;13.284;2023-04-03T12:01:06;54.11;51.28;61.72;;
61321;Laerm;17737;52.586;13.284;2023-04-03T12:04:07;53.84;51.15;58.94;;
61321;Laerm;17737;52.586;13.284;2023-04-03T12:07:13;54.11;51.20;59.31;;
61321;Laerm;17737;52.586;13.284;2023-04-03T12:10:18;53.96;51.05;59.45;;
61321;Laerm;17737;52.586;13.284;2023-04-03T12:12:59;53.84;51.34;57.96;;
61321;Laerm;17737;52.586;13.284;2023-04-03T12:15:50;53.84;51.01;62.46;;
61321;Laerm;17737;52.586;13.284;2023-04-03T12:19:00;55.81;51.50;64.34;;
61321;Laerm;17737;52.586;13.284;2023-04-03T12:22:19;54.71;51.43;62.55;;
61321;Laerm;17737;52.586;13.284;2023-04-03T12:24:50;55.25;51.17;64.42;;
61321;Laerm;17737;52.586;13.284;2023-04-03T12:27:28;55.00;51.24;60.45;;
61321;Laerm;17737;52.586;13.284;2023-04-03T12:30:05;54.34;51.20;59.65;;
61321;Laerm;17737;52.586;13.284;2023-04-03T12:36:04;54.40;51.05;68.92;;
61321;Laerm;17737;52.586;13.284;2023-04-03T12:39:01;53.63;51.27;58.29;;
61321;Laerm;17737;52.586;13.284;2023-04-03T12:41:38;54.34;51.21;59.71;;
61321;Laerm;17737;52.586;13.284;2023-04-03T12:44:35;55.07;51.06;64.73;;
61321;Laerm;17737;52.586;13.284;2023-04-03T12:47:22;55.04;51.25;61.05;;
61321;Laerm;17737;52.586;13.284;2023-04-03T12:49:53;53.95;51.21;59.66;;
61321;Laerm;17737;52.586;13.284;2023-04-03T12:52:33;53.75;51.01;59.72;;
61321;Laerm;17737;52.586;13.284;2023-04-03T12:55:08;53.20;51.08;57.99;;
61321;Laerm;17737;52.586;13.284;2023-04-03T12:57:45;54.35;51.00;60.03;;
61321;Laerm;17737;52.586;13.284;2023-04-03T13:00:28;54.05;50.95;62.51;;
61321;Laerm;17737;52.586;13.284;2023-04-03T13:02:56;53.97;51.21;59.26;;
61321;Laerm;17737;52.586;13.284;2023-04-03T13:05:25;53.93;50.90;60.30;;
61321;Laerm;17737;52.586;13.284;2023-04-03T13:07:59;53.85;51.08;60.50;;
61321;Laerm;17737;52.586;13.284;2023-04-03T13:10:29;54.85;51.12;61.90;;
61321;Laerm;17737;52.586;13.284;2023-04-03T13:12:58;55.51;51.39;63.53;;
61321;Laerm;17737;52.586;13.284;2023-04-03T13:15:44;55.25;51.13;64.10;;
61321;Laerm;17737;52.586;13.284;2023-04-03T13:18:29;64.10;51.42;81.97;;
61321;Laerm;17737;52.586;13.284;2023-04-03T13:21:04;55.04;51.15;62.04;;
61321;Laerm;17737;52.586;13.284;2023-04-03T13:23:36;53.33;51.16;57.98;;
61321;Laerm;17737;52.586;13.284;2023-04-03T13:26:07;54.70;51.58;59.58;;
61321;Laerm;17737;52.586;13.284;2023-04-03T13:28:37;54.63;51.33;63.41;;
61321;Laerm;17737;52.586;13.284;2023-04-03T13:31:31;54.42;51.31;58.98;;
61321;Laerm;17737;52.586;13.284;2023-04-03T13:34:06;55.87;51.20;69.92;;
61321;Laerm;17737;52.586;13.284;2023-04-03T13:36:37;54.33;51.31;60.30;;
61321;Laerm;17737;52.586;13.284;2023-04-03T13:39:22;53.91;51.21;60.55;;
61321;Laerm;17737;52.586;13.284;2023-04-03T13:41:52;53.89;51.25;58.95;;
61321;Laerm;17737;52.586;13.284;2023-04-03T13:44:32;53.94;51.05;61.36;;
61321;Laerm;17737;52.586;13.284;2023-04-03T13:47:18;53.63;51.15;58.35;;
61321;Laerm;17737;52.586;13.284;2023-04-03T13:50:02;53.84;51.02;59.32;;
61321;Laerm;17737;52.586;13.284;2023-04-03T13:52:33;53.55;50.91;61.79;;
61321;Laerm;17737;52.586;13.284;2023-04-03T13:55:18;54.41;51.04;62.20;;
61321;Laerm;17737;52.586;13.284;2023-04-03T13:58:23;55.09;51.36;64.33;;
61321;Laerm;17737;52.586;13.284;2023-04-03T14:00:55;54.68;51.43;63.18;;
61321;Laerm;17737;52.586;13.284;2023-04-03T14:03:33;54.43;51.03;62.26;;
61321;Laerm;17737;52.586;13.284;2023-04-03T14:06:09;54.27;51.15;74.06;;
61321;Laerm;17737;52.586;13.284;2023-04-03T14:08:37;54.60;51.42;66.94;;